Time;durP1;ratioP1;P1;durP2;ratioP2;P2;SDS_P1;SDS_P2;PMS_P1;PMS_P2;Temp;Humidity;BMP_temperature;BMP_pressure;BME280_temperature;BME280_humidity;BME280_pressure;Samples;Min_cycle;Max_cycle;Signal;HPM_P1;HPM_P2
2023/03/22 00:02:00;;;;;;;13.67;8.63;;;10.30;38.70;;;;;;4998142;28;46486;-78
2023/03/22 00:04:26;;;;;;;18.10;9.13;;;10.30;38.80;;;;;;4997291;28;46450;-79
2023/03/22 00:06:52;;;;;;;13.00;8.13;;;10.30;38.90;;;;;;4994811;28;46409;-77
2023/03/22 00:09:17;;;;;;;14.50;8.40;;;10.30;38.90;;;;;;4996995;28;46336;-79
2023/03/22 00:11:43;;;;;;;14.33;8.00;;;10.40;38.80;;;;;;4999905;28;46529;-78
2023/03/22 00:14:09;;;;;;;14.03;8.17;;;10.40;38.80;;;;;;4997245;28;46480;-79
2023/03/22 00:16:34;;;;;;;13.63;7.97;;;10.40;38.80;;;;;;4998398;28;46523;-78
2023/03/22 00:19:00;;;;;;;13.80;8.87;;;10.50;38.80;;;;;;5000154;28;46447;-79
2023/03/22 00:21:25;;;;;;;13.83;8.57;;;10.40;38.80;;;;;;4998258;28;47546;-79
2023/03/22 00:23:51;;;;;;;12.57;8.10;;;10.40;38.80;;;;;;4998270;28;46419;-79
2023/03/22 00:26:16;;;;;;;10.60;7.63;;;10.40;38.80;;;;;;4996406;28;46507;-77
2023/03/22 00:28:42;;;;;;;17.70;8.40;;;10.40;38.80;;;;;;4998231;28;46675;-79
2023/03/22 00:31:08;;;;;;;13.70;8.80;;;10.30;38.70;;;;;;4998750;28;46704;-80
2023/03/22 00:33:35;;;;;;;18.30;8.10;;;10.30;39.10;;;;;;5000766;28;46462;-78
2023/03/22 00:36:06;;;;;;;16.63;7.60;;;10.20;39.30;;;;;;4997510;28;46356;-78
2023/03/22 00:38:38;;;;;;;9.83;7.40;;;10.10;39.50;;;;;;4996150;28;46558;-78
2023/03/22 00:41:17;;;;;;;14.77;7.60;;;10.10;39.90;;;;;;4996527;28;47652;-79
2023/03/22 00:43:44;;;;;;;13.33;7.20;;;9.90;41.00;;;;;;4994519;28;46088;-78
2023/03/22 00:46:11;;;;;;;13.10;7.60;;;9.90;41.20;;;;;;4994820;28;46286;-77
2023/03/22 00:48:36;;;;;;;11.37;7.53;;;9.90;41.20;;;;;;4994331;28;46509;-79
2023/03/22 00:51:03;;;;;;;12.43;7.43;;;9.80;41.10;;;;;;4997979;28;46408;-78
2023/03/22 00:53:28;;;;;;;11.30;7.10;;;9.80;41.20;;;;;;4998759;28;46666;-78
2023/03/22 00:55:55;;;;;;;16.20;7.70;;;9.70;41.50;;;;;;4995050;28;46480;-78
2023/03/22 00:58:21;;;;;;;10.70;7.33;;;9.60;41.60;;;;;;4996534;28;46870;-78
2023/03/22 01:00:47;;;;;;;10.30;7.63;;;9.60;41.80;;;;;;4997767;28;45923;-78
2023/03/22 01:03:14;;;;;;;11.13;7.10;;;9.50;41.70;;;;;;4996785;28;46463;-78
2023/03/22 01:05:40;;;;;;;10.37;7.47;;;9.50;41.90;;;;;;4993802;28;46880;-78
2023/03/22 01:08:09;;;;;;;13.33;7.83;;;9.50;41.90;;;;;;4989900;28;46541;-77
2023/03/22 01:10:36;;;;;;;12.90;6.50;;;9.40;41.90;;;;;;4994010;28;46773;-78
2023/03/22 01:13:02;;;;;;;10.30;6.60;;;9.20;42.10;;;;;;4997047;28;46522;-78
2023/03/22 01:15:27;;;;;;;10.53;6.90;;;9.10;42.50;;;;;;4993834;28;46166;-78
2023/03/22 01:17:53;;;;;;;11.20;7.00;;;8.80;42.80;;;;;;4995212;28;46377;-77
2023/03/22 01:20:19;;;;;;;11.77;6.80;;;8.80;43.40;;;;;;4995902;28;46384;-78
2023/03/22 01:22:44;;;;;;;10.00;7.10;;;8.60;43.50;;;;;;4997636;28;46361;-78
2023/03/22 01:25:10;;;;;;;10.37;7.30;;;8.60;43.70;;;;;;4995722;28;46452;-78
2023/03/22 01:27:36;;;;;;;11.27;8.17;;;8.50;43.80;;;;;;4998093;28;46584;-77
2023/03/22 01:30:02;;;;;;;11.50;7.67;;;8.40;43.90;;;;;;4996745;28;46971;-78
2023/03/22 01:32:28;;;;;;;11.50;7.80;;;8.50;43.80;;;;;;4998162;28;46515;-77
2023/03/22 01:34:53;;;;;;;10.10;7.23;;;8.40;43.70;;;;;;4993929;28;46426;-79
2023/03/22 01:37:20;;;;;;;9.20;7.17;;;8.50;43.80;;;;;;4997048;28;46340;-78
2023/03/22 01:39:46;;;;;;;10.70;6.73;;;8.40;43.70;;;;;;4998060;28;46416;-79
2023/03/22 01:42:15;;;;;;;10.13;6.40;;;8.40;43.80;;;;;;4996116;28;46572;-80
2023/03/22 01:45:03;;;;;;;9.60;6.93;;;8.20;43.90;;;;;;4995094;28;46487;-78
2023/03/22 01:47:30;;;;;;;9.70;6.77;;;8.10;44.10;;;;;;4994862;28;46471;-78
2023/03/22 01:49:55;;;;;;;9.93;6.97;;;8.00;44.40;;;;;;4997169;28;46316;-77
2023/03/22 01:52:21;;;;;;;9.40;6.60;;;8.00;44.60;;;;;;4996943;28;46431;-78
2023/03/22 01:54:49;;;;;;;13.93;7.97;;;7.90;44.40;;;;;;4995375;28;46487;-77
2023/03/22 01:57:15;;;;;;;17.43;9.23;;;7.90;44.40;;;;;;4994527;28;46375;-77
2023/03/22 01:59:41;;;;;;;13.73;8.33;;;8.00;44.30;;;;;;4995086;28;46484;-79
2023/03/22 02:02:09;;;;;;;15.50;9.30;;;8.00;43.90;;;;;;4992060;28;46496;-79
2023/03/22 02:04:38;;;;;;;13.73;8.27;;;8.10;43.60;;;;;;4997320;28;46465;-79
2023/03/22 02:07:14;;;;;;;13.67;7.40;;;8.20;43.40;;;;;;4996011;28;46722;-79
2023/03/22 02:09:41;;;;;;;12.97;8.33;;;8.20;43.20;;;;;;4998692;28;46166;-78
2023/03/22 02:12:40;;;;;;;17.23;9.23;;;8.20;43.00;;;;;;4994486;28;46545;-78
2023/03/22 02:15:33;;;;;;;10.60;7.40;;;8.30;42.80;;;;;;4995040;28;46422;-79
2023/03/22 02:18:15;;;;;;;11.17;7.07;;;8.30;42.70;;;;;;4994170;28;46640;-77
2023/03/22 02:21:20;;;;;;;11.00;7.87;;;8.40;42.70;;;;;;4996969;28;46396;-81
2023/03/22 02:23:54;;;;;;;11.87;6.70;;;8.30;42.70;;;;;;4991509;28;46386;-79
2023/03/22 02:26:48;;;;;;;14.67;6.70;;;8.20;43.20;;;;;;4992233;28;47778;-79
2023/03/22 02:29:51;;;;;;;8.20;6.07;;;8.00;43.40;;;;;;4996131;28;46373;-79
2023/03/22 02:32:51;;;;;;;10.63;6.97;;;7.90;43.70;;;;;;4994273;28;46329;-79
2023/03/22 02:35:41;;;;;;;10.43;7.00;;;7.80;44.10;;;;;;4995207;28;46402;-79
2023/03/22 02:38:47;;;;;;;11.63;7.13;;;7.70;44.40;;;;;;4994363;28;46381;-78
2023/03/22 02:41:35;;;;;;;16.70;6.63;;;7.70;44.40;;;;;;4991273;28;46333;-79
2023/03/22 02:44:25;;;;;;;12.70;7.00;;;7.70;44.00;;;;;;4991234;28;46321;-79
2023/03/22 02:47:08;;;;;;;13.60;7.27;;;7.80;43.90;;;;;;4992740;28;46483;-78
2023/03/22 02:49:46;;;;;;;11.40;7.10;;;7.80;43.60;;;;;;4995899;28;47084;-78
2023/03/22 02:52:30;;;;;;;12.80;6.90;;;7.90;43.40;;;;;;4993642;28;45816;-77
2023/03/22 02:55:03;;;;;;;10.30;6.80;;;7.90;43.50;;;;;;4995721;28;46343;-79
2023/03/22 02:57:39;;;;;;;10.50;6.97;;;7.80;43.50;;;;;;4996905;28;46598;-78
2023/03/22 03:00:10;;;;;;;11.20;7.13;;;7.70;43.70;;;;;;4994425;28;47559;-79
2023/03/22 03:02:40;;;;;;;9.97;6.43;;;7.60;43.90;;;;;;4994833;28;46513;-80
2023/03/22 03:05:07;;;;;;;12.57;7.20;;;7.60;44.20;;;;;;4995277;28;46463;-80
2023/03/22 03:07:33;;;;;;;11.53;7.07;;;7.50;44.50;;;;;;4996660;28;46616;-78
2023/03/22 03:10:00;;;;;;;10.03;7.47;;;7.40;44.70;;;;;;5009815;28;47059;-78
2023/03/22 03:12:27;;;;;;;9.20;6.60;;;7.30;44.80;;;;;;5008279;28;46718;-78
2023/03/22 03:14:53;;;;;;;11.80;6.90;;;7.20;45.00;;;;;;4994231;28;46487;-78
2023/03/22 03:17:33;;;;;;;12.80;7.00;;;7.20;45.10;;;;;;4994182;28;48053;-79
2023/03/22 03:20:21;;;;;;;11.07;6.70;;;7.20;45.10;;;;;;4997919;28;46427;-78
2023/03/22 03:23:12;;;;;;;11.13;7.00;;;7.10;45.10;;;;;;4994704;28;46522;-79
2023/03/22 03:26:04;;;;;;;11.07;7.60;;;7.10;45.30;;;;;;4993517;28;46395;-78
2023/03/22 03:28:59;;;;;;;10.73;6.53;;;7.10;45.50;;;;;;4994338;28;46462;-79
2023/03/22 03:31:46;;;;;;;10.73;6.77;;;6.90;45.60;;;;;;4993513;28;46495;-78
2023/03/22 03:34:25;;;;;;;9.83;6.20;;;6.80;45.90;;;;;;4996958;28;46352;-80
2023/03/22 03:37:07;;;;;;;12.10;5.67;;;6.70;46.40;;;;;;4995952;28;46740;-78
2023/03/22 03:39:36;;;;;;;8.53;5.60;;;6.50;46.50;;;;;;4994563;28;46543;-77
2023/03/22 03:42:05;;;;;;;7.80;5.53;;;6.40;46.70;;;;;;4996386;28;47248;-80
2023/03/22 03:44:33;;;;;;;10.93;5.67;;;6.30;46.90;;;;;;4995700;28;46462;-80
2023/03/22 03:46:59;;;;;;;11.03;6.30;;;6.20;47.10;;;;;;4995462;28;46245;-77
2023/03/22 03:49:26;;;;;;;10.63;6.70;;;6.10;47.10;;;;;;4991679;28;46253;-79
2023/03/22 03:51:53;;;;;;;9.50;6.20;;;6.10;47.00;;;;;;4994770;28;46307;-80
2023/03/22 03:54:20;;;;;;;10.03;6.67;;;6.20;46.90;;;;;;4994322;28;46419;-80
2023/03/22 03:56:46;;;;;;;10.40;6.37;;;6.30;46.80;;;;;;4996126;28;46218;-79
2023/03/22 03:59:14;;;;;;;11.00;6.80;;;6.30;46.60;;;;;;4999288;28;46647;-79
2023/03/22 04:01:52;;;;;;;11.00;6.17;;;6.30;46.60;;;;;;4998707;28;47490;-78
2023/03/22 04:04:26;;;;;;;11.87;6.47;;;6.30;46.70;;;;;;4994964;28;46882;-79
2023/03/22 04:06:55;;;;;;;10.27;6.07;;;6.20;46.70;;;;;;4996091;28;47449;-80
2023/03/22 04:09:22;;;;;;;13.93;5.43;;;6.20;46.70;;;;;;5015009;28;45863;-80
2023/03/22 04:11:48;;;;;;;10.40;5.73;;;6.10;46.70;;;;;;5007850;28;47447;-79
2023/03/22 04:14:14;;;;;;;10.10;5.60;;;6.10;46.70;;;;;;4999828;28;46500;-80
2023/03/22 04:16:40;;;;;;;8.00;5.20;;;6.10;47.00;;;;;;4990307;28;45978;-79
2023/03/22 04:19:05;;;;;;;8.60;6.07;;;6.00;47.10;;;;;;4993666;28;46554;-78
2023/03/22 04:21:31;;;;;;;9.57;6.00;;;5.90;47.10;;;;;;4992990;28;46795;-80
2023/03/22 04:23:56;;;;;;;12.10;6.37;;;5.90;47.00;;;;;;4995280;28;46480;-79
2023/03/22 04:26:22;;;;;;;13.13;5.30;;;5.90;47.10;;;;;;4993991;28;46478;-79
2023/03/22 04:28:48;;;;;;;10.73;6.10;;;5.90;47.10;;;;;;4996606;28;46392;-79
2023/03/22 04:31:13;;;;;;;10.27;6.40;;;5.90;47.10;;;;;;4993320;28;46634;-78
2023/03/22 04:33:39;;;;;;;8.30;5.97;;;5.80;47.10;;;;;;4996330;28;45910;-79
2023/03/22 04:36:14;;;;;;;9.90;5.57;;;5.80;47.00;;;;;;5027049;28;46500;-79
2023/03/22 04:38:41;;;;;;;9.70;6.00;;;5.80;47.10;;;;;;4989584;28;46465;-77
2023/03/22 04:41:07;;;;;;;8.73;4.83;;;5.70;47.10;;;;;;4996998;28;46494;-79
2023/03/22 04:43:33;;;;;;;19.07;6.70;;;5.60;47.20;;;;;;4997931;28;46374;-79
2023/03/22 04:46:00;;;;;;;8.60;5.87;;;5.60;47.40;;;;;;4996503;28;46648;-79
2023/03/22 04:48:28;;;;;;;11.57;6.50;;;5.60;47.70;;;;;;4995687;28;46858;-79
2023/03/22 04:50:54;;;;;;;8.63;4.93;;;5.50;47.50;;;;;;4997997;28;46572;-79
2023/03/22 04:53:25;;;;;;;8.53;5.30;;;5.50;47.60;;;;;;4994409;28;45941;-79
2023/03/22 04:55:55;;;;;;;8.70;5.50;;;5.50;47.40;;;;;;4998742;28;45862;-79
2023/03/22 04:58:22;;;;;;;8.37;5.50;;;5.50;47.40;;;;;;4994956;28;46290;-79
2023/03/22 05:00:48;;;;;;;8.93;5.10;;;5.50;47.50;;;;;;4997171;28;46408;-79
2023/03/22 05:03:17;;;;;;;11.00;5.80;;;5.50;48.80;;;;;;4996733;28;46375;-79
2023/03/22 05:05:49;;;;;;;9.17;5.37;;;5.40;47.50;;;;;;4998979;28;46430;-79
2023/03/22 05:08:15;;;;;;;14.23;5.90;;;5.40;47.60;;;;;;4998501;28;46416;-77
2023/03/22 05:10:42;;;;;;;8.27;5.13;;;5.40;47.50;;;;;;4998772;28;47305;-79
2023/03/22 05:13:07;;;;;;;9.37;6.00;;;5.40;47.50;;;;;;4993237;28;46479;-79
2023/03/22 05:15:33;;;;;;;9.33;5.37;;;5.50;47.40;;;;;;4998532;28;46301;-78
2023/03/22 05:17:58;;;;;;;8.80;6.10;;;5.50;47.20;;;;;;5015342;28;46334;-78
2023/03/22 05:20:24;;;;;;;15.33;6.27;;;5.60;46.90;;;;;;4996833;28;46516;-80
2023/03/22 05:22:50;;;;;;;9.20;5.33;;;5.70;46.90;;;;;;4999892;28;46405;-80
2023/03/22 05:25:15;;;;;;;9.07;5.60;;;5.80;46.80;;;;;;4998340;28;46317;-79
2023/03/22 05:27:41;;;;;;;9.23;5.70;;;5.80;46.90;;;;;;4997397;28;46635;-79
2023/03/22 05:30:08;;;;;;;8.97;5.47;;;5.70;47.00;;;;;;4994234;28;46618;-78
2023/03/22 05:32:36;;;;;;;9.43;5.13;;;5.70;47.10;;;;;;4996957;28;46392;-80
2023/03/22 05:35:03;;;;;;;7.10;4.70;;;5.70;47.20;;;;;;4996514;28;46549;-76
2023/03/22 05:37:29;;;;;;;9.80;5.10;;;5.70;47.30;;;;;;4996726;28;46414;-79
2023/03/22 05:39:55;;;;;;;10.27;5.70;;;5.80;47.20;;;;;;4997519;28;46487;-80
2023/03/22 05:42:20;;;;;;;6.50;4.47;;;6.00;47.30;;;;;;4997083;28;46420;-77
2023/03/22 05:44:46;;;;;;;7.73;4.33;;;6.40;47.90;;;;;;4997943;28;45906;-79
2023/03/22 05:47:11;;;;;;;6.37;4.00;;;6.70;48.90;;;;;;5000384;28;46758;-80
2023/03/22 05:49:37;;;;;;;6.90;4.37;;;7.00;49.10;;;;;;5000568;28;46995;-79
2023/03/22 05:52:06;;;;;;;8.40;4.37;;;7.20;48.20;;;;;;5001928;28;46390;-78
2023/03/22 05:54:31;;;;;;;10.80;4.60;;;7.30;47.20;;;;;;5002800;28;46046;-79
2023/03/22 05:56:57;;;;;;;6.40;4.23;;;7.30;46.30;;;;;;5001460;28;46261;-80
2023/03/22 05:59:22;;;;;;;6.30;4.30;;;7.30;46.00;;;;;;5004245;28;46431;-80
2023/03/22 06:01:48;;;;;;;9.93;4.80;;;7.30;45.80;;;;;;4999195;28;46431;-79
2023/03/22 06:04:13;;;;;;;12.70;5.00;;;7.40;46.00;;;;;;4996041;28;46487;-79
2023/03/22 06:06:40;;;;;;;9.47;4.40;;;7.50;46.30;;;;;;5023029;28;46501;-80
2023/03/22 06:09:06;;;;;;;8.97;4.27;;;7.70;47.00;;;;;;4995165;28;46541;-78
2023/03/22 06:11:34;;;;;;;8.90;4.20;;;8.00;46.40;;;;;;4995360;28;46407;-80
2023/03/22 06:14:00;;;;;;;11.43;4.23;;;8.20;45.40;;;;;;4996414;28;46510;-79
2023/03/22 06:16:26;;;;;;;7.13;4.20;;;8.20;44.90;;;;;;5028063;28;46299;-79
2023/03/22 06:18:51;;;;;;;6.73;4.00;;;8.30;44.50;;;;;;4997321;28;46135;-79
2023/03/22 06:21:17;;;;;;;6.33;4.20;;;8.40;44.20;;;;;;4993255;28;46476;-79
2023/03/22 06:23:42;;;;;;;6.70;4.00;;;8.60;43.80;;;;;;4997641;28;47082;-78
2023/03/22 06:26:10;;;;;;;8.10;4.80;;;8.70;43.40;;;;;;4994963;28;46521;-77
2023/03/22 06:28:36;;;;;;;6.40;4.07;;;8.90;43.20;;;;;;4997201;28;46531;-79
2023/03/22 06:31:09;;;;;;;9.97;4.10;;;9.10;42.70;;;;;;5012356;28;46412;-79
2023/03/22 06:33:35;;;;;;;7.53;4.30;;;9.30;42.40;;;;;;4994809;28;46333;-79
2023/03/22 06:36:02;;;;;;;13.90;7.60;;;9.40;42.20;;;;;;5010095;28;46559;-81
2023/03/22 06:38:28;;;;;;;6.57;4.20;;;9.50;42.20;;;;;;5018817;28;45993;-81
2023/03/22 06:40:54;;;;;;;9.63;4.73;;;9.60;42.00;;;;;;5001239;28;46308;-79
2023/03/22 06:43:20;;;;;;;8.10;5.47;;;9.80;41.90;;;;;;4994922;28;46404;-79
2023/03/22 06:45:46;;;;;;;10.20;5.10;;;9.90;41.80;;;;;;4997862;28;46265;-80
2023/03/22 06:48:12;;;;;;;6.20;3.73;;;10.00;40.70;;;;;;4999289;28;47134;-79
2023/03/22 06:50:38;;;;;;;5.10;3.43;;;10.20;40.50;;;;;;4997810;28;46761;-79
2023/03/22 06:53:05;;;;;;;6.60;3.90;;;10.30;40.50;;;;;;4995884;28;46543;-78
2023/03/22 06:55:33;;;;;;;14.67;9.30;;;10.50;40.40;;;;;;4993857;28;45840;-79
2023/03/22 06:57:59;;;;;;;21.37;12.73;;;10.60;40.20;;;;;;4995627;28;47066;-79
2023/03/22 07:00:25;;;;;;;32.50;17.20;;;10.80;40.00;;;;;;4996212;28;46459;-79
2023/03/22 07:02:51;;;;;;;10.20;5.90;;;10.90;39.90;;;;;;4993602;28;46425;-79
2023/03/22 07:05:16;;;;;;;8.47;5.07;;;11.00;39.70;;;;;;4995235;28;46345;-79
2023/03/22 07:07:42;;;;;;;6.53;4.17;;;11.10;39.80;;;;;;4994038;28;46735;-79
2023/03/22 07:10:08;;;;;;;9.67;4.67;;;11.10;39.80;;;;;;5026134;28;46656;-78
2023/03/22 07:12:34;;;;;;;6.50;4.40;;;11.20;39.50;;;;;;4999662;28;46440;-79
2023/03/22 07:14:59;;;;;;;7.33;4.43;;;11.20;39.70;;;;;;5001078;28;46520;-80
2023/03/22 07:17:25;;;;;;;8.13;4.67;;;11.40;39.80;;;;;;5007318;28;46468;-81
2023/03/22 07:19:50;;;;;;;7.60;4.63;;;11.50;39.90;;;;;;5009057;28;45797;-80
2023/03/22 07:22:16;;;;;;;10.13;4.93;;;11.60;40.00;;;;;;5009867;28;46628;-80
2023/03/22 07:24:42;;;;;;;6.70;4.60;;;11.80;40.10;;;;;;5005907;28;46374;-80
2023/03/22 07:27:07;;;;;;;6.77;4.50;;;12.00;39.60;;;;;;5007917;28;47061;-80
2023/03/22 07:29:33;;;;;;;9.63;4.30;;;12.10;39.10;;;;;;5006161;28;45786;-80
2023/03/22 07:31:58;;;;;;;7.30;4.20;;;12.30;39.00;;;;;;5007803;28;46325;-79
2023/03/22 07:34:24;;;;;;;7.50;5.40;;;12.40;38.80;;;;;;5008685;28;46862;-78
2023/03/22 07:36:50;;;;;;;7.70;4.40;;;12.50;38.30;;;;;;5008345;28;46157;-80
2023/03/22 07:39:15;;;;;;;6.20;3.97;;;12.80;38.40;;;;;;5003581;28;46859;-79
2023/03/22 07:41:41;;;;;;;7.53;4.43;;;12.70;37.80;;;;;;5008531;28;46377;-79
2023/03/22 07:44:07;;;;;;;11.10;4.33;;;12.80;37.50;;;;;;5009803;28;46751;-79
2023/03/22 07:46:32;;;;;;;7.23;4.90;;;12.90;37.00;;;;;;5006049;28;46522;-80
2023/03/22 07:48:58;;;;;;;6.47;3.97;;;13.00;36.90;;;;;;5008184;28;46946;-81
2023/03/22 07:51:23;;;;;;;9.47;4.27;;;13.20;36.50;;;;;;5006119;28;45848;-80
2023/03/22 07:53:49;;;;;;;7.60;3.70;;;13.30;36.20;;;;;;5007317;28;46448;-81
2023/03/22 07:56:14;;;;;;;8.30;3.90;;;13.40;35.40;;;;;;5008606;28;47412;-79
2023/03/22 07:58:40;;;;;;;7.50;3.67;;;13.50;35.30;;;;;;5008262;28;46460;-81
2023/03/22 08:01:07;;;;;;;5.43;3.10;;;13.70;35.20;;;;;;5008230;28;45819;-79
2023/03/22 08:03:35;;;;;;;4.97;3.50;;;13.80;34.80;;;;;;5008610;28;46596;-80
2023/03/22 08:06:06;;;;;;;4.50;2.83;;;14.00;34.40;;;;;;5006818;28;46687;-79
2023/03/22 08:08:32;;;;;;;4.53;3.20;;;14.20;33.90;;;;;;5013495;28;46477;-80
2023/03/22 08:10:57;;;;;;;5.80;3.20;;;14.30;33.30;;;;;;5007778;28;46425;-80
2023/03/22 08:13:23;;;;;;;7.63;3.70;;;14.50;32.80;;;;;;5006865;28;46435;-81
2023/03/22 08:15:49;;;;;;;6.20;4.40;;;14.50;32.40;;;;;;5008530;28;46380;-79
2023/03/22 08:18:14;;;;;;;4.70;2.97;;;14.60;32.00;;;;;;5009547;28;46653;-77
2023/03/22 08:20:40;;;;;;;5.97;2.67;;;14.70;31.60;;;;;;5011686;28;46385;-79
2023/03/22 08:23:10;;;;;;;5.87;2.90;;;14.70;30.90;;;;;;5010480;28;46390;-78
2023/03/22 08:25:35;;;;;;;4.00;2.87;;;14.90;30.70;;;;;;5008653;28;47655;-79
2023/03/22 08:28:01;;;;;;;4.93;2.90;;;14.90;30.20;;;;;;5011806;28;46425;-79
2023/03/22 08:30:27;;;;;;;4.37;2.57;;;15.10;29.70;;;;;;5009083;28;46423;-80
2023/03/22 08:32:52;;;;;;;5.73;3.27;;;15.20;30.80;;;;;;5010873;28;46653;-80
2023/03/22 08:35:18;;;;;;;7.93;3.50;;;15.30;29.80;;;;;;5009370;28;46994;-80
2023/03/22 08:37:44;;;;;;;8.00;3.20;;;15.40;29.60;;;;;;5011113;28;46741;-80
2023/03/22 08:40:10;;;;;;;5.20;3.33;;;15.50;29.30;;;;;;5010838;28;46903;-79
2023/03/22 08:42:35;;;;;;;5.43;3.23;;;15.50;29.00;;;;;;5016008;28;47168;-79
2023/03/22 08:45:02;;;;;;;7.40;3.13;;;15.60;28.70;;;;;;5014600;28;46468;-81
2023/03/22 08:47:28;;;;;;;6.93;3.20;;;15.70;28.40;;;;;;5014329;28;46571;-79
2023/03/22 08:49:54;;;;;;;6.20;3.20;;;15.80;28.30;;;;;;5009944;28;45835;-79
2023/03/22 08:52:19;;;;;;;10.60;3.23;;;15.90;28.20;;;;;;5011234;28;46983;-78
2023/03/22 08:54:45;;;;;;;6.57;3.30;;;15.80;27.20;;;;;;5010212;28;46542;-79
2023/03/22 08:57:12;;;;;;;9.63;3.83;;;16.00;27.50;;;;;;5010908;28;45865;-79
2023/03/22 08:59:38;;;;;;;4.67;2.93;;;16.00;27.20;;;;;;5011675;28;46784;-78
2023/03/22 09:02:06;;;;;;;6.90;3.40;;;16.10;27.10;;;;;;5010923;28;46387;-80
2023/03/22 09:04:32;;;;;;;5.60;3.23;;;16.10;27.00;;;;;;5012507;28;46518;-81
2023/03/22 09:06:58;;;;;;;7.40;2.97;;;16.20;26.80;;;;;;5006738;28;46442;-80
2023/03/22 09:09:23;;;;;;;5.97;3.23;;;16.30;26.40;;;;;;5009449;28;46520;-80
2023/03/22 09:11:49;;;;;;;7.80;3.47;;;16.40;26.50;;;;;;5009460;28;46506;-78
2023/03/22 09:14:14;;;;;;;6.40;3.20;;;16.50;26.20;;;;;;5012203;28;46932;-79
2023/03/22 09:16:40;;;;;;;5.47;3.20;;;16.50;25.30;;;;;;5009438;28;46418;-79
2023/03/22 09:19:06;;;;;;;10.07;4.37;;;16.60;25.70;;;;;;5011112;28;46523;-79
2023/03/22 09:21:31;;;;;;;12.47;3.20;;;16.70;25.50;;;;;;5011510;28;46376;-80
2023/03/22 09:23:57;;;;;;;8.17;3.60;;;16.70;25.30;;;;;;5010423;28;45960;-80
2023/03/22 09:26:24;;;;;;;6.83;3.50;;;16.80;25.10;;;;;;5008958;28;46800;-80
2023/03/22 09:28:50;;;;;;;5.47;3.50;;;16.80;24.20;;;;;;5011194;28;46445;-80
2023/03/22 09:31:15;;;;;;;5.90;3.53;;;16.60;23.90;;;;;;5009910;28;46556;-80
2023/03/22 09:33:41;;;;;;;4.70;2.93;;;16.60;24.10;;;;;;5010449;28;46509;-81
2023/03/22 09:36:08;;;;;;;7.57;3.80;;;16.70;24.10;;;;;;5008834;28;46430;-81
2023/03/22 09:38:34;;;;;;;5.67;3.10;;;16.90;24.00;;;;;;5009451;28;45896;-79
2023/03/22 09:41:16;;;;;;;5.80;3.20;;;16.90;23.70;;;;;;5008636;28;45963;-81
2023/03/22 09:43:49;;;;;;;6.70;2.87;;;17.00;23.30;;;;;;5009688;28;46910;-79
2023/03/22 09:46:39;;;;;;;9.20;3.67;;;16.90;23.30;;;;;;5009041;28;46375;-78
2023/03/22 09:49:11;;;;;;;5.73;3.20;;;16.80;22.60;;;;;;5010458;28;46401;-80
2023/03/22 09:51:38;;;;;;;7.17;3.37;;;16.80;22.70;;;;;;5010910;28;46882;-80
2023/03/22 09:54:17;;;;;;;5.60;2.93;;;16.80;22.10;;;;;;5010363;28;46925;-79
2023/03/22 09:56:44;;;;;;;6.00;3.50;;;16.70;22.20;;;;;;5009386;28;46491;-79
2023/03/22 10:00:10;;;;;;;6.87;3.20;;;17.00;22.20;;;;;;5010497;28;46458;-79
2023/03/22 10:02:56;;;;;;;6.17;3.30;;;17.00;21.50;;;;;;5009723;28;46636;-79
2023/03/22 10:05:25;;;;;;;6.17;3.23;;;17.10;22.10;;;;;;5008976;28;46487;-79
2023/03/22 10:07:58;;;;;;;5.63;2.83;;;17.30;22.00;;;;;;5011746;28;46416;-80
2023/03/22 10:10:24;;;;;;;5.47;3.20;;;17.30;22.00;;;;;;5012073;28;46941;-79
2023/03/22 10:13:04;;;;;;;8.57;3.63;;;17.50;22.00;;;;;;5010724;28;46507;-79
2023/03/22 10:15:52;;;;;;;7.57;2.87;;;17.50;21.60;;;;;;5008364;28;46816;-80
2023/03/22 10:18:42;;;;;;;5.53;3.13;;;17.70;21.60;;;;;;5007835;28;46558;-79
2023/03/22 10:21:14;;;;;;;6.30;2.93;;;17.70;20.80;;;;;;5010521;28;46826;-78
2023/03/22 10:23:56;;;;;;;9.40;3.10;;;17.60;21.20;;;;;;5007801;28;46424;-79
2023/03/22 10:26:33;;;;;;;6.77;2.80;;;17.70;20.90;;;;;;5007123;28;48905;-81
2023/03/22 10:29:01;;;;;;;7.40;2.97;;;17.70;20.70;;;;;;5007908;28;46541;-78
2023/03/22 10:31:29;;;;;;;9.33;2.87;;;17.70;20.80;;;;;;5010419;28;46451;-79
2023/03/22 10:33:58;;;;;;;4.30;2.50;;;17.60;20.70;;;;;;5008983;28;46629;-79
2023/03/22 10:36:29;;;;;;;3.90;2.60;;;17.70;20.80;;;;;;5008706;28;46682;-78
2023/03/22 10:38:59;;;;;;;4.50;2.80;;;17.70;20.80;;;;;;5008678;28;46845;-79
2023/03/22 10:41:28;;;;;;;3.93;2.47;;;17.50;19.70;;;;;;5004450;28;46541;-81
2023/03/22 10:43:57;;;;;;;4.83;2.57;;;17.50;19.90;;;;;;5009260;28;46523;-80
2023/03/22 10:46:25;;;;;;;7.10;2.77;;;17.60;20.30;;;;;;5006228;28;46512;-78
2023/03/22 10:48:57;;;;;;;7.73;2.70;;;17.50;18.80;;;;;;5009364;28;46710;-80
2023/03/22 10:51:33;;;;;;;5.20;2.73;;;17.50;19.70;;;;;;5009499;28;46482;-77
2023/03/22 10:54:00;;;;;;;6.50;2.83;;;17.60;20.00;;;;;;5011037;28;46774;-80
2023/03/22 10:56:26;;;;;;;5.60;3.10;;;17.50;19.50;;;;;;5006585;28;46965;-78
2023/03/22 10:58:54;;;;;;;4.20;2.63;;;17.50;19.50;;;;;;5009097;28;46498;-78
2023/03/22 11:01:30;;;;;;;4.43;2.37;;;17.40;19.70;;;;;;5007232;28;47191;-78
2023/03/22 11:04:16;;;;;;;7.07;2.90;;;17.60;20.10;;;;;;5010057;28;46422;-79
2023/03/22 11:06:51;;;;;;;5.67;2.80;;;17.70;19.60;;;;;;5006078;28;47470;-79
2023/03/22 11:09:19;;;;;;;5.20;2.90;;;17.90;19.30;;;;;;5008951;28;45854;-80
2023/03/22 11:11:53;;;;;;;5.37;2.87;;;17.80;19.40;;;;;;5008954;28;45913;-79
2023/03/22 11:14:43;;;;;;;6.07;2.90;;;17.90;19.40;;;;;;5009572;28;46446;-79
2023/03/22 11:17:13;;;;;;;8.57;2.97;;;18.00;19.20;;;;;;5009939;28;47533;-79
2023/03/22 11:19:58;;;;;;;6.20;2.47;;;18.00;19.30;;;;;;5004237;28;46519;-79
2023/03/22 11:22:32;;;;;;;4.33;2.37;;;18.10;18.90;;;;;;5008739;28;46487;-78
2023/03/22 11:24:58;;;;;;;5.87;3.03;;;18.20;19.10;;;;;;5008946;28;46459;-80
2023/03/22 11:27:27;;;;;;;4.00;2.20;;;18.20;18.20;;;;;;5023883;28;47164;-80
2023/03/22 11:29:57;;;;;;;5.07;2.93;;;18.10;18.70;;;;;;5008377;28;46434;-79
2023/03/22 11:32:31;;;;;;;5.90;3.00;;;18.20;18.80;;;;;;5006649;28;46412;-80
2023/03/22 11:35:21;;;;;;;3.80;2.40;;;18.40;18.60;;;;;;5009219;28;46995;-78
2023/03/22 11:37:52;;;;;;;11.20;2.73;;;18.50;19.40;;;;;;5006727;28;47576;-78
2023/03/22 11:40:23;;;;;;;6.07;2.70;;;18.50;18.90;;;;;;5005981;28;46944;-78
2023/03/22 11:42:52;;;;;;;6.77;2.80;;;18.50;18.50;;;;;;5008442;28;46485;-79
2023/03/22 11:45:34;;;;;;;4.63;2.50;;;18.60;18.30;;;;;;5007830;28;46405;-79
2023/03/22 11:48:13;;;;;;;6.53;2.50;;;18.60;18.20;;;;;;5007359;28;47419;-78
2023/03/22 11:50:44;;;;;;;5.27;2.67;;;18.70;18.00;;;;;;5007499;28;46460;-78
2023/03/22 11:53:16;;;;;;;15.23;2.97;;;18.80;17.90;;;;;;5006424;28;46410;-79
2023/03/22 11:55:44;;;;;;;6.67;2.70;;;18.80;17.90;;;;;;5008472;28;46878;-80
2023/03/22 11:58:28;;;;;;;7.07;3.33;;;18.80;17.80;;;;;;5007804;28;46464;-78
2023/03/22 12:00:58;;;;;;;5.33;2.83;;;18.80;17.60;;;;;;5007492;28;46366;-78
2023/03/22 12:03:28;;;;;;;4.73;2.50;;;18.90;17.60;;;;;;5008092;28;47478;-79
2023/03/22 12:05:55;;;;;;;3.60;2.07;;;18.90;17.70;;;;;;5009569;28;46535;-80
2023/03/22 12:08:41;;;;;;;4.73;2.50;;;19.00;17.70;;;;;;5009479;28;46639;-78
2023/03/22 12:11:16;;;;;;;4.63;2.90;;;19.00;17.40;;;;;;5009328;28;46435;-78
2023/03/22 12:13:54;;;;;;;4.73;1.90;;;19.10;17.00;;;;;;5006614;28;47799;-78
2023/03/22 12:16:32;;;;;;;9.50;2.13;;;19.00;16.30;;;;;;5008957;28;46506;-79
2023/03/22 12:19:35;;;;;;;5.20;2.07;;;19.00;16.40;;;;;;5007716;28;46663;-80
2023/03/22 12:22:01;;;;;;;4.70;2.20;;;19.00;16.00;;;;;;5006224;28;46458;-80
2023/03/22 12:24:29;;;;;;;9.50;2.17;;;19.10;16.40;;;;;;5007110;28;46526;-79
2023/03/22 12:27:27;;;;;;;4.07;2.43;;;19.10;16.00;;;;;;5006163;28;46376;-78
2023/03/22 12:30:16;;;;;;;4.50;2.37;;;19.10;15.80;;;;;;5005381;28;46540;-78
2023/03/22 12:32:56;;;;;;;5.07;2.60;;;19.10;15.80;;;;;;5006543;28;46860;-80
2023/03/22 12:35:26;;;;;;;9.40;2.83;;;19.30;15.80;;;;;;5005960;28;46398;-80
2023/03/22 12:37:55;;;;;;;4.73;2.30;;;19.30;16.00;;;;;;5007535;28;46682;-79
2023/03/22 12:40:27;;;;;;;8.80;3.07;;;19.20;15.60;;;;;;5007915;28;47198;-78
2023/03/22 12:43:08;;;;;;;5.43;2.73;;;19.10;15.40;;;;;;5007114;28;46418;-78
2023/03/22 12:45:41;;;;;;;5.63;2.23;;;19.10;15.40;;;;;;5003898;28;46497;-79
2023/03/22 12:48:16;;;;;;;5.87;2.40;;;19.30;15.40;;;;;;5008039;28;46443;-78
2023/03/22 12:50:51;;;;;;;8.20;2.77;;;19.30;14.70;;;;;;5006615;28;47385;-80
2023/03/22 12:53:18;;;;;;;6.80;2.60;;;19.10;14.60;;;;;;5006347;28;46463;-78
2023/03/22 12:55:46;;;;;;;4.17;2.17;;;19.10;14.50;;;;;;5005329;28;46490;-78
2023/03/22 12:58:18;;;;;;;7.23;2.67;;;19.00;14.30;;;;;;5006470;28;46621;-79
2023/03/22 13:00:57;;;;;;;3.93;2.30;;;19.10;14.60;;;;;;5007637;28;46909;-79
2023/03/22 13:03:36;;;;;;;5.40;2.30;;;19.10;13.70;;;;;;5010599;28;46518;-81
2023/03/22 13:06:26;;;;;;;4.00;2.13;;;19.10;13.40;;;;;;5009934;28;46303;-78